.
WxDataArchive / Data Records for 2007-01-15
2007-01-14 January 2007 2007-01-16

Data Records for Monday, 15 January 2007

Time	Temp	Chill	HIndex	Humid	Dewpt	 Wind 	HiWind	WindDir	Rain 	Barom 
-----	----	-----	------	-----	-----	------	------	-------	-----	----- 
00:00	31.9	28.0	31.9	92	29.8	4	10	112	0.01	30.013 
00:05	31.9	28.0	31.9	96	30.9	4	9	112	0.00	30.010 
00:10	31.9	31.9	31.9	96	30.9	2	6	112	0.02	30.006 
00:15	31.9	31.9	31.9	96	30.9	3	7	112	0.00	29.996 
00:20	31.9	31.9	31.9	96	30.9	3	7	112	0.02	29.992 
00:25	31.9	31.9	31.9	96	30.9	3	7	112	0.01	29.983 
00:30	31.9	31.9	31.9	97	31.1	3	6	90	0.01	29.982 
00:35	31.9	28.0	31.9	97	31.1	4	9	90	0.00	29.979 
00:40	31.9	31.9	31.9	97	31.1	3	7	90	0.01	29.977 
00:45	32.1	32.1	32.1	97	31.3	3	7	112	0.01	29.978 
00:50	32.1	32.1	32.1	97	31.3	3	7	112	0.01	29.968 
00:55	32.1	32.1	32.1	97	31.3	3	8	90	0.01	29.954 
01:00	32.1	27.2	32.1	97	31.3	5	11	90	0.01	29.947 
01:05	32.1	26.3	32.1	97	31.3	6	11	112	0.01	29.940 
01:10	32.1	27.2	32.1	97	31.3	5	11	90	0.01	29.941 
01:15	32.1	32.1	32.1	97	31.3	3	9	90	0.00	29.942 
01:20	32.2	27.3	32.2	97	31.4	5	10	112	0.01	29.932 
01:25	32.1	26.3	32.1	97	31.3	6	11	112	0.01	29.917 
01:30	32.2	27.3	32.2	97	31.4	5	11	112	0.00	29.914 
01:35	32.2	26.5	32.2	97	31.4	6	11	112	0.01	29.908 
01:40	32.2	28.3	32.2	96	31.2	4	10	112	0.00	29.906 
01:45	32.2	28.3	32.2	96	31.2	4	10	90	0.00	29.905 
01:50	32.2	27.3	32.2	96	31.2	5	9	112	0.00	29.900 
01:55	32.2	27.3	32.2	96	31.2	5	11	112	0.01	29.887 
02:00	32.2	28.3	32.2	96	31.2	4	10	112	0.00	29.884 
02:05	32.4	28.5	32.4	96	31.4	4	10	112	0.01	29.884 
02:10	32.4	28.5	32.4	96	31.4	4	12	112	0.00	29.884 
02:15	32.4	32.4	32.4	96	31.4	3	9	112	0.02	29.885 
02:20	32.4	32.4	32.4	96	31.4	1	4	68	0.02	29.898 
02:25	32.5	28.7	32.5	97	31.7	4	9	112	0.01	29.881 
02:30	32.5	32.5	32.5	96	31.5	3	6	90	0.01	29.872 
02:35	32.5	32.5	32.5	97	31.7	3	6	112	0.01	29.872 
02:40	32.5	28.7	32.5	97	31.7	4	7	112	0.01	29.865 
02:45	32.5	28.7	32.5	96	31.5	4	11	112	0.01	29.853 
02:50	32.5	28.7	32.5	97	31.7	4	9	112	0.01	29.844 
02:55	32.5	28.7	32.5	97	31.7	4	9	112	0.00	29.838 
03:00	32.5	28.7	32.5	97	31.7	4	10	112	0.00	29.836 
03:05	32.5	28.7	32.5	97	31.7	4	12	112	0.01	29.829 
03:10	32.5	28.7	32.5	97	31.7	4	8	112	0.01	29.824 
03:15	32.5	32.5	32.5	97	31.7	3	7	112	0.00	29.810 
03:20	32.5	32.5	32.5	97	31.7	3	10	90	0.01	29.822 
03:25	32.5	32.5	32.5	97	31.7	3	7	112	0.01	29.806 
03:30	32.5	32.5	32.5	97	31.7	3	6	112	0.01	29.801 
03:35	32.7	32.7	32.7	97	31.9	3	9	112	0.02	29.797 
03:40	32.7	28.9	32.7	97	31.9	4	6	90	0.00	29.798 
03:45	32.8	32.8	32.8	97	32.0	2	5	112	0.01	29.795 
03:50	32.8	32.8	32.8	97	32.0	2	5	90	0.01	29.801 
03:55	32.8	32.8	32.8	97	32.0	3	9	112	0.01	29.796 
04:00	32.8	32.8	32.8	97	32.0	1	5	112	0.00	29.805 
04:05	32.9	32.9	32.9	97	32.1	3	9	112	0.01	29.805 
04:10	32.9	32.9	32.9	97	32.1	1	6	90	0.01	29.792 
04:15	32.9	32.9	32.9	97	32.1	3	10	112	0.01	29.792 
04:20	32.9	32.9	32.9	97	32.1	0	2	112	0.00	29.792 
04:25	33.1	33.1	33.1	97	32.3	1	4	112	0.01	29.792 
04:30	33.1	33.1	33.1	97	32.3	2	4	112	0.01	29.794 
04:35	33.1	33.1	33.1	97	32.3	1	3	112	0.00	29.799 
04:40	33.2	33.2	33.2	97	32.4	0	3	45	0.01	29.795 
04:45	33.2	33.2	33.2	97	32.4	1	3	45	0.01	29.788 
04:50	33.2	33.2	33.2	97	32.4	1	3	112	0.00	29.783 
04:55	33.2	33.2	33.2	97	32.4	1	3	112	0.01	29.776 
05:00	33.2	33.2	33.2	97	32.4	1	3	112	0.00	29.769 
05:05	33.2	33.2	33.2	97	32.4	1	3	112	0.01	29.774 
05:10	33.2	33.2	33.2	97	32.4	1	4	112	0.00	29.779 
05:15	33.2	33.2	33.2	97	32.4	1	3	90	0.00	29.775 
05:20	33.2	33.2	33.2	97	32.4	0	2	112	0.00	29.783 
05:25	33.4	33.4	33.4	97	32.6	0	1	90	0.00	29.790 
05:30	33.4	33.4	33.4	97	32.6	0	1	90	0.01	29.777 
05:35	33.4	33.4	33.4	97	32.6	0	2	68	0.00	29.772 
05:40	33.4	33.4	33.4	97	32.6	0	2	68	0.00	29.769 
05:45	33.4	33.4	33.4	97	32.6	0	2	68	0.01	29.772 
05:50	33.4	33.4	33.4	97	32.6	1	3	292	0.00	29.792 
05:55	33.4	33.4	33.4	97	32.6	1	2	292	0.00	29.796 
06:00	33.5	33.5	33.5	97	32.7	0	2	0	0.00	29.788 
06:05	33.5	33.5	33.5	97	32.7	0	1	0	0.00	29.790 
06:10	33.5	33.5	33.5	97	32.7	0	1	0	0.00	29.791 
06:15	33.5	33.5	33.5	97	32.7	0	1	0	0.01	29.793 
06:20	33.5	33.5	33.5	97	32.7	0	1	0	0.00	29.792 
06:25	33.5	33.5	33.5	97	32.7	0	1	0	0.00	29.792 
06:30	33.5	33.5	33.5	97	32.7	0	1	0	0.00	29.792 
06:35	33.5	33.5	33.5	98	33.0	0	0	---	0.01	29.789 
06:40	33.5	33.5	33.5	98	33.0	0	2	338	0.00	29.801 
06:45	33.5	33.5	33.5	98	33.0	0	0	---	0.00	29.804 
06:50	33.5	33.5	33.5	98	33.0	0	1	338	0.00	29.804 
06:55	33.5	33.5	33.5	98	33.0	0	1	338	0.00	29.806 
07:00	33.4	33.4	33.4	98	32.9	0	0	---	0.00	29.804 
07:05	33.4	33.4	33.4	98	32.9	0	1	338	0.01	29.805 
07:10	33.4	33.4	33.4	98	32.9	0	1	338	0.00	29.791 
07:15	33.4	33.4	33.4	98	32.9	0	2	338	0.00	29.793 
07:20	33.4	33.4	33.4	98	32.9	0	0	---	0.00	29.804 
07:25	33.4	33.4	33.4	98	32.9	0	1	338	0.00	29.808 
07:30	33.4	33.4	33.4	98	32.9	0	1	338	0.00	29.819 
07:35	33.4	33.4	33.4	98	32.9	1	2	270	0.00	29.837 
07:40	33.4	33.4	33.4	98	32.9	0	2	315	0.00	29.831 
07:45	33.4	33.4	33.4	98	32.9	0	1	315	0.00	29.823 
07:50	33.4	33.4	33.4	98	32.9	0	1	315	0.00	29.818 
07:55	33.4	33.4	33.4	98	32.9	0	1	315	0.00	29.818 
08:00	33.4	33.4	33.4	98	32.9	1	2	338	0.00	29.801 
08:05	33.4	33.4	33.4	98	32.9	1	3	90	0.00	29.799 
08:10	33.4	33.4	33.4	98	32.9	0	2	315	0.00	29.812 
08:15	33.5	33.5	33.5	98	33.0	0	1	338	0.00	29.799 
08:20	33.5	33.5	33.5	98	33.0	0	1	338	0.00	29.798 
08:25	33.5	33.5	33.5	98	33.0	0	2	338	0.00	29.799 
08:30	33.5	33.5	33.5	98	33.0	0	2	0	0.00	29.808 
08:35	33.5	33.5	33.5	98	33.0	1	2	0	0.00	29.821 
08:40	33.7	33.7	33.7	98	33.2	1	3	248	0.00	29.812 
08:45	33.7	33.7	33.7	98	33.2	0	1	248	0.00	29.815 
08:50	33.7	33.7	33.7	98	33.2	0	1	248	0.00	29.818 
08:55	33.7	33.7	33.7	98	33.2	0	1	248	0.00	29.838 
09:00	33.8	33.8	33.8	98	33.3	0	1	248	0.00	29.848 
09:05	34.0	34.0	34.0	98	33.5	0	1	248	0.00	29.850 
09:10	34.0	34.0	34.0	98	33.5	0	2	248	0.00	29.852 
09:15	34.0	34.0	34.0	98	33.5	0	1	248	0.00	29.851 
09:20	34.1	34.1	34.1	98	33.6	0	0	---	0.00	29.840 
09:25	34.1	34.1	34.1	98	33.6	0	0	---	0.00	29.826 
09:30	34.1	34.1	34.1	98	33.6	0	1	248	0.00	29.825 
09:35	34.1	34.1	34.1	98	33.6	0	1	248	0.00	29.837 
09:40	34.1	34.1	34.1	98	33.6	0	1	248	0.00	29.834 
09:45	34.1	34.1	34.1	98	33.6	0	0	---	0.00	29.837 
09:50	34.1	34.1	34.1	98	33.6	0	1	248	0.00	29.866 
09:55	34.3	34.3	34.3	98	33.8	0	2	248	0.00	29.853 
10:00	34.3	34.3	34.3	98	33.8	0	2	248	0.00	29.856 
10:05	34.4	34.4	34.4	98	33.9	0	2	248	0.00	29.853 
10:10	34.4	34.4	34.4	98	33.9	0	1	248	0.00	29.852 
10:15	34.6	34.6	34.6	98	34.1	0	1	248	0.00	29.862 
10:20	34.6	34.6	34.6	98	34.1	0	1	248	0.00	29.870 
10:25	34.7	34.7	34.7	98	34.2	0	1	248	0.00	29.857 
10:30	34.7	34.7	34.7	98	34.2	0	1	248	0.00	29.856 
10:35	34.9	34.9	34.9	98	34.4	0	1	248	0.00	29.852 
10:40	34.9	34.9	34.9	98	34.4	1	3	248	0.00	29.885 
10:45	35.0	35.0	35.0	98	34.5	1	4	248	0.00	29.898 
10:50	35.0	35.0	35.0	98	34.5	1	4	248	0.00	29.886 
10:55	35.2	35.2	35.2	98	34.7	1	5	248	0.00	29.888 
11:00	35.2	35.2	35.2	98	34.7	2	4	248	0.00	29.885 
11:05	35.2	35.2	35.2	98	34.7	1	3	248	0.00	29.869 
11:10	35.2	35.2	35.2	98	34.7	2	4	248	0.00	29.870 
11:15	35.2	35.2	35.2	98	34.7	2	5	248	0.00	29.892 
11:20	35.2	35.2	35.2	98	34.7	3	7	248	0.00	29.885 
11:25	35.2	35.2	35.2	98	34.7	3	6	248	0.00	29.893 
11:30	35.3	35.3	35.3	98	34.8	3	7	248	0.00	29.894 
11:35	35.2	35.2	35.2	98	34.7	3	10	248	0.00	29.897 
11:40	35.2	35.2	35.2	98	34.7	3	9	248	0.00	29.893 
11:45	35.2	35.2	35.2	98	34.7	3	9	270	0.00	29.894 
11:50	35.2	31.8	35.2	98	34.7	4	10	248	0.00	29.879 
11:55	35.3	35.3	35.3	98	34.8	2	6	248	0.00	29.876 
12:00	35.5	35.5	35.5	98	35.0	2	6	270	0.00	29.882 
12:05	35.5	35.5	35.5	98	35.0	3	11	270	0.00	29.882 
12:10	35.5	35.5	35.5	98	35.0	3	8	270	0.00	29.866 
12:15	35.3	35.3	35.3	98	34.8	3	6	270	0.00	29.866 
12:20	35.3	31.9	35.3	98	34.8	4	12	270	0.00	29.861 
12:25	35.3	35.3	35.3	98	34.8	2	6	270	0.00	29.852 
12:30	35.3	35.3	35.3	98	34.8	3	10	270	0.00	29.843 
12:35	35.3	31.9	35.3	98	34.8	4	8	270	0.00	29.853 
12:40	35.3	35.3	35.3	98	34.8	3	9	270	0.00	29.849 
12:45	35.5	35.5	35.5	98	35.0	3	10	270	0.00	29.855 
12:50	35.3	31.9	35.3	98	34.8	4	12	270	0.00	29.875 
12:55	35.3	35.3	35.3	98	34.8	3	9	270	0.00	29.882 
13:00	35.3	31.9	35.3	98	34.8	4	12	270	0.00	29.867 
13:05	35.3	31.9	35.3	98	34.8	4	12	270	0.00	29.868 
13:10	35.3	31.9	35.3	97	34.5	4	10	270	0.00	29.865 
13:15	35.3	35.3	35.3	97	34.5	3	7	270	0.00	29.869 
13:20	35.3	35.3	35.3	97	34.5	2	5	270	0.00	29.869 
13:25	35.2	30.8	35.2	96	34.2	5	11	270	0.00	29.855 
13:30	35.0	31.5	35.0	96	34.0	4	18	270	0.00	29.853 
13:35	35.0	31.5	35.0	96	34.0	4	12	270	0.00	29.842 
13:40	35.0	35.0	35.0	96	34.0	3	6	270	0.00	29.854 
13:45	35.0	31.5	35.0	96	34.0	4	7	270	0.00	29.858 
13:50	35.0	31.5	35.0	95	33.7	4	9	270	0.00	29.871 
13:55	35.0	35.0	35.0	95	33.7	3	10	270	0.00	29.871 
14:00	35.0	31.5	35.0	95	33.7	4	11	270	0.00	29.879 
14:05	35.0	35.0	35.0	95	33.7	3	10	270	0.00	29.874 
14:10	35.0	31.5	35.0	94	33.5	4	11	270	0.00	29.872 
14:15	35.0	31.5	35.0	94	33.5	4	12	270	0.00	29.868 
14:20	35.0	30.6	35.0	93	33.2	5	11	270	0.00	29.864 
14:25	35.0	35.0	35.0	93	33.2	3	11	270	0.00	29.854 
14:30	35.0	35.0	35.0	93	33.2	3	10	270	0.00	29.851 
14:35	35.0	35.0	35.0	93	33.2	2	7	270	0.00	29.850 
14:40	35.0	31.5	35.0	93	33.2	4	11	270	0.00	29.851 
14:45	35.2	35.2	35.2	92	33.1	3	7	270	0.00	29.850 
14:50	35.2	35.2	35.2	92	33.1	3	9	270	0.00	29.851 
14:55	35.3	31.9	35.3	91	32.9	4	11	270	0.00	29.853 
15:00	35.5	32.1	35.5	90	32.9	4	11	270	0.00	29.865 
15:05	35.5	35.5	35.5	90	32.9	3	10	270	0.00	29.859 
15:10	35.6	35.6	35.6	89	32.7	3	8	270	0.00	29.861 
15:15	35.5	32.1	35.5	88	32.3	4	9	270	0.00	29.867 
15:20	35.6	35.6	35.6	89	32.7	3	9	270	0.00	29.869 
15:25	35.6	32.2	35.6	89	32.7	4	10	270	0.00	29.867 
15:30	35.6	35.6	35.6	90	33.0	1	4	270	0.00	29.877 
15:35	35.6	35.6	35.6	90	33.0	2	6	248	0.00	29.881 
15:40	35.5	32.1	35.5	90	32.9	4	11	270	0.00	29.883 
15:45	35.5	35.5	35.5	90	32.9	2	6	270	0.00	29.887 
15:50	35.5	35.5	35.5	91	33.1	3	6	270	0.00	29.894 
15:55	35.5	35.5	35.5	90	32.9	3	7	248	0.00	29.895 
16:00	35.5	32.1	35.5	90	32.9	4	8	270	0.00	29.894 
16:05	35.3	35.3	35.3	90	32.7	3	10	270	0.00	29.892 
16:10	35.0	35.0	35.0	91	32.6	3	9	270	0.00	29.892 
16:15	35.0	35.0	35.0	91	32.6	2	7	270	0.00	29.897 
16:20	34.9	34.9	34.9	91	32.5	2	5	270	0.00	29.900 
16:25	34.7	34.7	34.7	91	32.3	2	6	248	0.00	29.905 
16:30	34.7	34.7	34.7	91	32.3	2	4	315	0.00	29.908 
16:35	34.6	31.1	34.6	90	32.0	4	9	270	0.00	29.912 
16:40	34.6	34.6	34.6	89	31.7	3	6	270	0.00	29.913 
16:45	34.6	34.6	34.6	89	31.7	2	5	270	0.00	29.914 
16:50	34.6	34.6	34.6	89	31.7	2	4	248	0.00	29.915 
16:55	34.6	34.6	34.6	88	31.4	3	6	270	0.00	29.914 
17:00	34.6	34.6	34.6	88	31.4	2	5	270	0.00	29.906 
17:05	34.4	34.4	34.4	87	30.9	2	5	315	0.00	29.910 
17:10	34.4	34.4	34.4	86	30.7	2	5	270	0.00	29.915 
17:15	34.4	34.4	34.4	86	30.7	1	4	315	0.00	29.917 
17:20	34.3	34.3	34.3	86	30.6	2	9	338	0.00	29.916 
17:25	34.3	34.3	34.3	86	30.6	1	2	315	0.00	29.915 
17:30	34.1	34.1	34.1	85	30.1	1	4	315	0.00	29.917 
17:35	34.1	34.1	34.1	86	30.4	1	3	338	0.00	29.930 
17:40	34.1	34.1	34.1	86	30.4	1	3	248	0.00	29.933 
17:45	34.1	34.1	34.1	84	29.8	2	6	270	0.00	29.936 
17:50	34.1	34.1	34.1	84	29.8	1	4	315	0.00	29.936 
17:55	34.1	34.1	34.1	85	30.1	1	4	292	0.00	29.943 
18:00	34.0	34.0	34.0	84	29.7	1	4	270	0.00	29.934 
18:05	34.0	34.0	34.0	85	30.0	1	3	292	0.00	29.938 
18:10	34.0	34.0	34.0	85	30.0	0	1	315	0.00	29.945 
18:15	33.8	33.8	33.8	85	29.8	0	2	315	0.00	29.939 
18:20	33.8	33.8	33.8	85	29.8	1	4	270	0.00	29.946 
18:25	33.7	33.7	33.7	85	29.7	1	2	315	0.00	29.949 
18:30	33.7	33.7	33.7	84	29.4	1	4	315	0.00	29.957 
18:35	33.7	33.7	33.7	84	29.4	1	5	315	0.00	29.958 
18:40	33.5	33.5	33.5	85	29.5	1	4	270	0.00	29.955 
18:45	33.4	33.4	33.4	84	29.1	1	3	315	0.00	29.964 
18:50	33.4	33.4	33.4	85	29.4	1	3	315	0.00	29.965 
18:55	33.4	33.4	33.4	84	29.1	1	4	338	0.00	29.968 
19:00	33.2	33.2	33.2	85	29.2	0	1	338	0.00	29.973 
19:05	33.2	33.2	33.2	84	28.9	1	2	338	0.00	29.979 
19:10	33.1	33.1	33.1	84	28.8	1	5	338	0.00	29.980 
19:15	33.1	33.1	33.1	84	28.8	0	2	338	0.00	29.980 
19:20	33.1	33.1	33.1	85	29.1	1	2	338	0.00	29.985 
19:25	32.9	32.9	32.9	84	28.6	1	3	315	0.00	29.988 
19:30	32.8	32.8	32.8	83	28.2	2	6	292	0.00	29.993 
19:35	32.8	32.8	32.8	83	28.2	1	4	315	0.00	29.994 
19:40	32.7	32.7	32.7	83	28.1	1	2	315	0.00	29.991 
19:45	32.7	32.7	32.7	83	28.1	2	5	270	0.00	29.994 
19:50	32.7	32.7	32.7	82	27.8	1	4	315	0.00	29.996 
19:55	32.7	32.7	32.7	83	28.1	1	3	315	0.00	29.996 
20:00	32.5	32.5	32.5	83	27.9	1	3	292	0.00	29.998 
20:05	32.5	32.5	32.5	83	27.9	1	3	292	0.00	30.000 
20:10	32.5	32.5	32.5	83	27.9	1	4	270	0.00	30.005 
20:15	32.4	32.4	32.4	83	27.8	1	3	292	0.00	30.006 
20:20	32.4	32.4	32.4	84	28.1	1	5	248	0.00	30.006 
20:25	32.4	32.4	32.4	83	27.8	1	4	338	0.00	30.005 
20:30	32.2	32.2	32.2	83	27.6	1	2	315	0.00	30.008 
20:35	32.2	32.2	32.2	84	27.9	1	2	315	0.00	30.011 
20:40	32.1	32.1	32.1	84	27.8	0	3	270	0.00	30.012 
20:45	32.1	32.1	32.1	84	27.8	1	3	315	0.00	30.012 
20:50	31.9	31.9	31.9	84	27.6	0	2	0	0.00	30.011 
20:55	31.9	31.9	31.9	85	27.9	1	2	270	0.00	30.011 
21:00	31.8	31.8	31.8	84	27.5	1	2	338	0.00	30.012 
21:05	31.6	31.6	31.6	84	27.3	1	3	292	0.00	30.015 
21:10	31.6	31.6	31.6	84	27.3	1	5	315	0.00	30.016 
21:15	31.6	31.6	31.6	84	27.3	1	4	338	0.00	30.018 
21:20	31.6	31.6	31.6	84	27.3	1	3	338	0.00	30.016 
21:25	31.6	31.6	31.6	84	27.3	1	4	315	0.00	30.015 
21:30	31.6	31.6	31.6	84	27.3	1	3	315	0.00	30.016 
21:35	31.6	31.6	31.6	84	27.3	0	3	270	0.00	30.023 
21:40	31.6	31.6	31.6	84	27.3	1	3	270	0.00	30.026 
21:45	31.6	31.6	31.6	84	27.3	0	1	338	0.00	30.027 
21:50	31.5	31.5	31.5	84	27.2	2	5	292	0.00	30.026 
21:55	31.5	31.5	31.5	83	26.9	2	5	338	0.00	30.029 
22:00	31.3	31.3	31.3	83	26.7	1	4	315	0.00	30.031 
22:05	31.2	31.2	31.2	81	26.1	2	4	292	0.00	30.036 
22:10	31.2	31.2	31.2	80	25.8	2	6	315	0.00	30.040 
22:15	31.0	31.0	31.0	80	25.6	1	6	315	0.00	30.043 
22:20	30.9	30.9	30.9	80	25.5	1	4	315	0.00	30.043 
22:25	30.9	30.9	30.9	80	25.5	2	5	270	0.00	30.049 
22:30	30.9	30.9	30.9	79	25.2	2	6	315	0.00	30.055 
22:35	30.7	30.7	30.7	78	24.7	2	5	315	0.00	30.059 
22:40	30.6	30.6	30.6	78	24.6	2	4	315	0.00	30.057 
22:45	30.4	30.4	30.4	79	24.7	1	3	338	0.00	30.052 
22:50	30.4	30.4	30.4	80	25.0	1	3	270	0.00	30.058 
22:55	30.3	30.3	30.3	79	24.6	1	3	270	0.00	30.055 
23:00	30.3	30.3	30.3	79	24.6	1	3	338	0.00	30.061 
23:05	30.3	30.3	30.3	80	24.9	0	3	338	0.00	30.063 
23:10	30.1	30.1	30.1	79	24.4	1	3	315	0.00	30.063 
23:15	30.1	30.1	30.1	79	24.4	1	4	315	0.00	30.061 
23:20	30.1	30.1	30.1	78	24.1	1	4	338	0.00	30.062 
23:25	30.1	30.1	30.1	79	24.4	1	3	338	0.00	30.062 
23:30	30.0	30.0	30.0	79	24.3	1	3	270	0.00	30.063 
23:35	29.8	29.8	29.8	77	23.5	1	4	292	0.00	30.072 
23:40	29.8	29.8	29.8	77	23.5	2	5	338	0.00	30.078 
23:45	29.7	29.7	29.7	78	23.7	1	3	315	0.00	30.081 
23:50	29.5	29.5	29.5	78	23.5	1	5	270	0.00	30.083 
23:55	29.4	29.4	29.4	79	23.7	1	3	270	0.00	30.091 

CoCoRaHS
IN-AL-39
A2 Web Hosting
Creative Commons License
GoDaddy
Look for:

loaded 2017-10-17 22:20:05 • last modified 2010-11-18 10:43:29
Privacy PolicyDisclaimer
• wx.awcolley.com is powered by PmWiki v.2002016 •
• all content (unless otherwise noted) © 2017 A W Colley